Time;durP1;ratioP1;P1;durP2;ratioP2;P2;SDS_P1;SDS_P2;PMS_P1;PMS_P2;Temp;Humidity;BMP_temperature;BMP_pressure;BME280_temperature;BME280_humidity;BME280_pressure;Samples;Min_cycle;Max_cycle;Signal;HPM_P1;HPM_P2
2023/11/03 00:01:28;;;;;;;2.33;2.03;;;;;;;;;;4999995;28;20286;-79
2023/11/03 00:03:56;;;;;;;2.45;1.17;;;;;;;;;;4995995;28;20240;-79
2023/11/03 00:06:24;;;;;;;1.65;1.10;;;;;;;;;;5003604;28;20299;-81
2023/11/03 00:08:52;;;;;;;1.38;0.90;;;;;;;;;;4998647;28;20216;-79
2023/11/03 00:11:20;;;;;;;2.55;0.93;;;;;;;;;;5000641;28;20213;-79
2023/11/03 00:13:47;;;;;;;1.35;1.05;;;;;;;;;;4998906;28;20223;-79
2023/11/03 00:16:15;;;;;;;2.72;1.10;;;;;;;;;;4998557;28;20601;-80
2023/11/03 00:18:42;;;;;;;3.78;2.05;;;;;;;;;;4998238;28;20203;-79
2023/11/03 00:21:11;;;;;;;2.33;1.80;;;;;;;;;;4998940;28;20204;-79
2023/11/03 00:23:38;;;;;;;0.90;0.90;;;;;;;;;;5002958;28;20226;-79
2023/11/03 00:26:10;;;;;;;2.78;1.00;;;;;;;;;;5004991;28;21745;-78
2023/11/03 00:28:38;;;;;;;3.42;1.25;;;;;;;;;;4995374;28;20204;-81
2023/11/03 00:31:06;;;;;;;6.55;1.77;;;;;;;;;;5003944;28;20227;-81
2023/11/03 00:33:34;;;;;;;3.67;1.08;;;;;;;;;;4993273;28;20230;-81
2023/11/03 00:36:05;;;;;;;3.05;1.33;;;;;;;;;;4997669;28;20208;-81
2023/11/03 00:38:34;;;;;;;1.38;1.17;;;;;;;;;;4999476;28;20208;-79
2023/11/03 00:41:01;;;;;;;1.70;1.27;;;;;;;;;;4999763;28;20235;-78
2023/11/03 00:43:29;;;;;;;2.30;1.27;;;;;;;;;;4994587;28;20230;-79
2023/11/03 00:45:56;;;;;;;2.90;1.35;;;;;;;;;;5000674;28;20205;-79
2023/11/03 00:48:26;;;;;;;1.33;1.10;;;;;;;;;;5001597;28;20231;-78
2023/11/03 00:50:53;;;;;;;3.03;1.33;;;;;;;;;;4999307;28;20223;-78
2023/11/03 00:53:21;;;;;;;1.73;1.17;;;;;;;;;;4993517;28;20227;-79
2023/11/03 00:55:50;;;;;;;2.90;1.83;;;;;;;;;;4995075;28;20215;-80
2023/11/03 00:58:17;;;;;;;1.55;1.25;;;;;;;;;;4998057;28;20200;-79
2023/11/03 01:00:44;;;;;;;1.45;1.10;;;;;;;;;;4994777;28;20299;-80
2023/11/03 01:03:14;;;;;;;4.22;2.08;;;;;;;;;;5002094;28;20226;-79
2023/11/03 01:05:44;;;;;;;2.75;1.10;;;;;;;;;;4994938;28;20211;-79
2023/11/03 01:08:12;;;;;;;4.57;1.30;;;;;;;;;;4993142;28;20240;-81
2023/11/03 01:10:39;;;;;;;2.13;1.27;;;;;;;;;;4999696;28;20318;-80
2023/11/03 01:13:10;;;;;;;1.88;1.20;;;;;;;;;;4996012;28;20230;-80
2023/11/03 01:15:37;;;;;;;2.28;1.10;;;;;;;;;;4997647;28;20240;-80
2023/11/03 01:18:05;;;;;;;3.60;1.52;;;;;;;;;;4997962;28;20202;-79
2023/11/03 01:20:32;;;;;;;2.03;1.35;;;;;;;;;;4991420;28;20204;-79
2023/11/03 01:23:00;;;;;;;2.80;1.17;;;;;;;;;;4996094;28;20311;-80
2023/11/03 01:25:29;;;;;;;3.03;1.33;;;;;;;;;;4992651;28;20204;-80
2023/11/03 01:27:57;;;;;;;2.08;1.55;;;;;;;;;;4997702;28;20251;-80
2023/11/03 01:30:26;;;;;;;2.03;1.15;;;;;;;;;;4997918;28;20250;-80
2023/11/03 01:32:53;;;;;;;1.98;1.23;;;;;;;;;;4991846;28;20307;-80
2023/11/03 01:35:21;;;;;;;2.35;1.30;;;;;;;;;;4997266;28;20204;-80
2023/11/03 01:37:49;;;;;;;3.05;1.65;;;;;;;;;;4994626;28;20210;-79
2023/11/03 01:40:17;;;;;;;4.30;1.38;;;;;;;;;;4997818;28;20235;-79
2023/11/03 01:42:44;;;;;;;1.55;1.30;;;;;;;;;;4998185;28;20231;-79
2023/11/03 01:45:12;;;;;;;4.28;1.38;;;;;;;;;;5000085;28;20211;-80
2023/11/03 01:47:41;;;;;;;3.15;1.40;;;;;;;;;;5005973;28;20200;-81
2023/11/03 01:50:10;;;;;;;2.47;1.35;;;;;;;;;;4996241;28;20226;-80
2023/11/03 01:52:39;;;;;;;2.63;1.60;;;;;;;;;;4996240;28;20231;-80
2023/11/03 01:55:08;;;;;;;2.47;1.33;;;;;;;;;;5001446;28;20214;-78
2023/11/03 01:57:35;;;;;;;2.60;1.35;;;;;;;;;;4994181;28;20242;-81
2023/11/03 02:00:04;;;;;;;2.80;1.38;;;;;;;;;;4995326;28;20226;-80
2023/11/03 02:02:33;;;;;;;2.95;1.13;;;;;;;;;;4996282;28;20235;-80
2023/11/03 02:05:02;;;;;;;1.35;1.10;;;;;;;;;;4999361;28;20204;-81
2023/11/03 02:07:30;;;;;;;1.38;0.98;;;;;;;;;;4995092;28;20210;-80
2023/11/03 02:09:57;;;;;;;3.28;1.50;;;;;;;;;;4997259;28;20208;-79
2023/11/03 02:12:25;;;;;;;2.63;1.10;;;;;;;;;;5000733;28;20314;-79
2023/11/03 02:14:52;;;;;;;2.42;1.65;;;;;;;;;;5003927;28;20275;-80
2023/11/03 02:17:20;;;;;;;2.08;0.98;;;;;;;;;;4993237;28;20200;-79
2023/11/03 02:19:48;;;;;;;3.22;1.58;;;;;;;;;;4993849;28;20586;-79
2023/11/03 02:22:16;;;;;;;3.95;1.38;;;;;;;;;;4997920;28;20724;-79
2023/11/03 02:24:45;;;;;;;3.13;1.30;;;;;;;;;;4994029;28;20306;-78
2023/11/03 02:27:13;;;;;;;1.98;1.20;;;;;;;;;;4993197;28;20203;-79
2023/11/03 02:29:41;;;;;;;2.80;1.40;;;;;;;;;;4997749;28;20210;-81
2023/11/03 02:32:10;;;;;;;2.03;1.30;;;;;;;;;;4997802;28;20227;-81
2023/11/03 02:34:37;;;;;;;2.38;1.00;;;;;;;;;;4995499;28;20286;-80
2023/11/03 02:37:05;;;;;;;1.90;1.30;;;;;;;;;;4993721;28;20575;-80
2023/11/03 02:39:33;;;;;;;1.77;1.10;;;;;;;;;;4993869;28;20231;-80
2023/11/03 02:42:02;;;;;;;2.00;1.20;;;;;;;;;;4999084;28;20202;-80
2023/11/03 02:44:29;;;;;;;2.25;1.20;;;;;;;;;;4988498;28;20211;-80
2023/11/03 02:46:57;;;;;;;5.65;2.05;;;;;;;;;;4991795;28;20319;-81
2023/11/03 02:49:24;;;;;;;2.78;1.20;;;;;;;;;;4998480;28;20218;-81
2023/11/03 02:51:52;;;;;;;1.65;0.70;;;;;;;;;;4998612;28;20220;-79
2023/11/03 02:54:19;;;;;;;2.40;1.50;;;;;;;;;;4993311;28;20200;-79
2023/11/03 02:56:47;;;;;;;2.95;1.17;;;;;;;;;;4992661;28;20199;-81
2023/11/03 02:59:16;;;;;;;1.50;1.33;;;;;;;;;;4992552;28;20207;-80
2023/11/03 03:01:43;;;;;;;2.30;1.23;;;;;;;;;;4995070;28;20196;-80
2023/11/03 03:04:10;;;;;;;5.88;1.30;;;;;;;;;;4995774;28;20227;-80
2023/11/03 03:06:39;;;;;;;13.55;1.55;;;;;;;;;;4998592;28;20199;-79
2023/11/03 03:09:07;;;;;;;1.58;1.00;;;;;;;;;;4990559;28;20215;-79
2023/11/03 03:11:35;;;;;;;5.28;1.33;;;;;;;;;;4996898;28;20227;-81
2023/11/03 03:14:02;;;;;;;5.00;1.40;;;;;;;;;;4998229;28;20578;-81
2023/11/03 03:16:31;;;;;;;1.42;1.10;;;;;;;;;;4999873;28;20242;-80
2023/11/03 03:18:59;;;;;;;1.60;1.25;;;;;;;;;;5000649;28;20231;-80
2023/11/03 03:21:26;;;;;;;2.97;1.10;;;;;;;;;;5000280;28;20231;-81
2023/11/03 03:23:53;;;;;;;0.93;0.93;;;;;;;;;;4998070;28;20226;-79
2023/11/03 03:26:21;;;;;;;2.60;1.25;;;;;;;;;;4999660;28;20294;-80
2023/11/03 03:28:48;;;;;;;4.32;1.00;;;;;;;;;;4997197;28;20236;-80
2023/11/03 03:31:16;;;;;;;1.88;0.90;;;;;;;;;;5002004;28;20598;-79
2023/11/03 03:33:46;;;;;;;1.75;1.00;;;;;;;;;;4996917;28;20299;-79
2023/11/03 03:36:14;;;;;;;1.27;1.10;;;;;;;;;;4997525;28;20227;-79
2023/11/03 03:38:41;;;;;;;1.70;1.00;;;;;;;;;;5000897;28;20202;-80
2023/11/03 03:41:13;;;;;;;4.82;1.70;;;;;;;;;;4997480;28;20214;-80
2023/11/03 03:43:41;;;;;;;2.75;1.50;;;;;;;;;;4997359;28;20227;-80
2023/11/03 03:46:09;;;;;;;4.13;1.30;;;;;;;;;;5000748;28;20294;-80
2023/11/03 03:48:36;;;;;;;1.23;1.00;;;;;;;;;;4999336;28;20211;-80
2023/11/03 03:51:05;;;;;;;1.67;1.27;;;;;;;;;;4996544;28;20234;-81
2023/11/03 03:53:33;;;;;;;1.23;0.98;;;;;;;;;;4991901;28;20224;-81
2023/11/03 03:56:00;;;;;;;1.25;1.13;;;;;;;;;;4993563;28;20208;-79
2023/11/03 03:58:28;;;;;;;1.73;1.15;;;;;;;;;;4996484;28;20585;-80
2023/11/03 04:00:55;;;;;;;7.05;1.48;;;;;;;;;;4992375;28;20208;-80
2023/11/03 04:03:23;;;;;;;3.22;1.77;;;;;;;;;;5027526;23;20230;-78
2023/11/03 04:05:50;;;;;;;2.88;1.42;;;;;;;;;;5064190;28;20276;-79
2023/11/03 04:08:19;;;;;;;1.38;1.20;;;;;;;;;;5059281;28;20570;-79
2023/11/03 04:10:46;;;;;;;1.75;1.17;;;;;;;;;;5059264;28;20204;-79
2023/11/03 04:13:14;;;;;;;2.45;1.50;;;;;;;;;;5063000;28;20227;-79
2023/11/03 04:15:41;;;;;;;1.52;1.13;;;;;;;;;;5053924;28;20217;-80
2023/11/03 04:18:08;;;;;;;2.03;1.00;;;;;;;;;;5050326;28;20212;-79
2023/11/03 04:20:36;;;;;;;1.67;1.08;;;;;;;;;;5056829;28;20590;-80
2023/11/03 04:23:03;;;;;;;1.05;0.93;;;;;;;;;;5048964;28;20224;-81
2023/11/03 04:25:32;;;;;;;1.77;1.20;;;;;;;;;;5051843;28;20220;-78
2023/11/03 04:27:59;;;;;;;2.53;1.02;;;;;;;;;;5047832;28;20575;-80
2023/11/03 04:30:27;;;;;;;1.55;0.90;;;;;;;;;;5061383;28;20205;-80
2023/11/03 04:32:54;;;;;;;1.35;0.90;;;;;;;;;;5058837;28;20668;-80
2023/11/03 04:35:22;;;;;;;2.08;1.10;;;;;;;;;;5054419;28;20288;-80
2023/11/03 04:37:49;;;;;;;2.17;1.00;;;;;;;;;;5052637;28;20206;-79
2023/11/03 04:40:19;;;;;;;2.35;1.15;;;;;;;;;;5044981;28;20197;-79
2023/11/03 04:42:47;;;;;;;2.10;1.35;;;;;;;;;;5052801;28;20296;-79
2023/11/03 04:45:17;;;;;;;1.10;0.90;;;;;;;;;;5052344;28;20197;-79
2023/11/03 04:47:44;;;;;;;2.05;1.63;;;;;;;;;;5049962;28;20208;-79
2023/11/03 04:50:12;;;;;;;1.92;1.05;;;;;;;;;;5053837;28;20676;-78
2023/11/03 04:52:40;;;;;;;1.70;1.10;;;;;;;;;;5062788;28;20235;-79
2023/11/03 04:55:08;;;;;;;2.47;1.00;;;;;;;;;;5056077;28;20204;-79
2023/11/03 04:57:36;;;;;;;2.25;0.90;;;;;;;;;;5063657;28;20205;-77
2023/11/03 05:00:09;;;;;;;1.52;1.20;;;;;;;;;;5054935;28;20205;-80
2023/11/03 05:02:37;;;;;;;1.17;1.08;;;;;;;;;;5047639;28;20201;-78
2023/11/03 05:05:05;;;;;;;4.05;1.05;;;;;;;;;;5058471;28;20225;-79
2023/11/03 05:07:33;;;;;;;1.42;0.85;;;;;;;;;;5050806;28;20289;-79
2023/11/03 05:10:00;;;;;;;2.42;1.20;;;;;;;;;;5054085;28;20289;-80
2023/11/03 05:12:28;;;;;;;2.05;1.08;;;;;;;;;;5054752;28;20226;-79
2023/11/03 05:14:55;;;;;;;2.17;1.13;;;;;;;;;;5051257;28;20198;-79
2023/11/03 05:17:24;;;;;;;2.22;1.10;;;;;;;;;;5059030;28;20614;-79
2023/11/03 05:19:52;;;;;;;2.30;1.38;;;;;;;;;;5054507;28;20561;-80
2023/11/03 05:22:20;;;;;;;2.47;1.02;;;;;;;;;;5054617;28;20199;-80
2023/11/03 05:24:47;;;;;;;4.45;1.38;;;;;;;;;;5050215;28;20290;-79
2023/11/03 05:27:15;;;;;;;1.60;1.17;;;;;;;;;;5058765;28;20648;-79
2023/11/03 05:29:42;;;;;;;2.85;0.90;;;;;;;;;;5051070;28;20236;-81
2023/11/03 05:32:12;;;;;;;1.38;0.90;;;;;;;;;;5057557;28;20675;-80
2023/11/03 05:34:41;;;;;;;1.80;1.10;;;;;;;;;;5062045;28;20275;-80
2023/11/03 05:37:10;;;;;;;0.90;0.90;;;;;;;;;;5053241;28;20200;-80
2023/11/03 05:39:38;;;;;;;1.92;1.10;;;;;;;;;;5054465;28;20206;-80
2023/11/03 05:42:06;;;;;;;1.38;1.20;;;;;;;;;;5056775;28;20289;-80
2023/11/03 05:44:33;;;;;;;1.75;0.95;;;;;;;;;;5053383;28;20260;-80
2023/11/03 05:47:01;;;;;;;1.50;0.90;;;;;;;;;;5060646;28;20194;-81
2023/11/03 05:49:29;;;;;;;0.80;0.80;;;;;;;;;;5050784;28;20637;-80
2023/11/03 05:51:57;;;;;;;1.90;1.10;;;;;;;;;;5054920;28;20347;-79
2023/11/03 05:54:25;;;;;;;1.23;1.10;;;;;;;;;;5057575;28;20228;-79
2023/11/03 05:56:52;;;;;;;2.33;0.95;;;;;;;;;;5053590;28;20208;-79
2023/11/03 05:59:20;;;;;;;3.25;1.08;;;;;;;;;;5053053;28;20670;-79
2023/11/03 06:01:47;;;;;;;1.38;0.88;;;;;;;;;;5057671;28;20201;-80
2023/11/03 06:04:15;;;;;;;1.10;1.00;;;;;;;;;;5061041;28;20235;-79
2023/11/03 06:06:42;;;;;;;1.67;1.58;;;;;;;;;;5052933;28;20309;-80
2023/11/03 06:09:12;;;;;;;3.08;1.00;;;;;;;;;;5056406;28;20216;-79
2023/11/03 06:11:40;;;;;;;2.15;1.00;;;;;;;;;;5054116;28;20206;-78
2023/11/03 06:14:07;;;;;;;0.82;0.80;;;;;;;;;;5051684;28;20229;-79
2023/11/03 06:16:34;;;;;;;1.88;1.73;;;;;;;;;;5058548;28;20742;-79
2023/11/03 06:19:03;;;;;;;2.13;1.05;;;;;;;;;;5059485;28;20210;-80
2023/11/03 06:21:31;;;;;;;4.07;1.45;;;;;;;;;;5053615;28;20199;-80
2023/11/03 06:23:58;;;;;;;2.22;0.93;;;;;;;;;;5053572;28;20210;-81
2023/11/03 06:26:27;;;;;;;1.15;1.00;;;;;;;;;;5053273;28;20199;-80
2023/11/03 06:28:56;;;;;;;1.85;1.25;;;;;;;;;;5051906;28;20265;-80
2023/11/03 06:31:23;;;;;;;3.10;1.48;;;;;;;;;;5057341;28;20668;-80
2023/11/03 06:33:51;;;;;;;2.17;1.20;;;;;;;;;;5049558;28;20672;-80
2023/11/03 06:36:18;;;;;;;1.63;0.90;;;;;;;;;;5053970;28;20213;-80
2023/11/03 06:38:46;;;;;;;1.58;0.90;;;;;;;;;;5048370;28;20261;-78
2023/11/03 06:41:13;;;;;;;1.17;0.90;;;;;;;;;;5047577;28;20573;-78
2023/11/03 06:43:42;;;;;;;1.67;1.58;;;;;;;;;;5047510;28;20316;-81
2023/11/03 06:46:10;;;;;;;1.40;1.05;;;;;;;;;;5054308;28;20198;-80
2023/11/03 06:48:37;;;;;;;3.65;1.60;;;;;;;;;;5052333;28;20201;-80
2023/11/03 06:51:10;;;;;;;1.30;0.98;;;;;;;;;;5056392;28;20269;-81
2023/11/03 06:53:38;;;;;;;2.05;1.00;;;;;;;;;;5049554;28;20286;-79
2023/11/03 06:56:07;;;;;;;4.28;1.10;;;;;;;;;;5050558;28;20564;-79
2023/11/03 06:58:34;;;;;;;1.38;1.00;;;;;;;;;;5046148;28;20213;-79
2023/11/03 07:01:04;;;;;;;1.75;1.20;;;;;;;;;;5051372;28;20204;-79
2023/11/03 07:03:32;;;;;;;1.08;1.08;;;;;;;;;;5059705;28;20226;-80
2023/11/03 07:06:03;;;;;;;1.65;1.08;;;;;;;;;;5062094;28;20306;-80
2023/11/03 07:08:31;;;;;;;8.45;2.08;;;;;;;;;;5062015;28;20201;-80
2023/11/03 07:10:59;;;;;;;4.82;1.15;;;;;;;;;;5054410;28;20644;-80
2023/11/03 07:13:28;;;;;;;1.40;1.13;;;;;;;;;;5043541;28;20235;-80
2023/11/03 07:15:55;;;;;;;0.80;0.80;;;;;;;;;;5053457;28;20205;-81
2023/11/03 07:18:25;;;;;;;1.67;1.10;;;;;;;;;;5061058;28;20229;-79
2023/11/03 07:20:53;;;;;;;3.17;1.30;;;;;;;;;;5058744;28;20201;-81
2023/11/03 07:23:21;;;;;;;1.73;1.00;;;;;;;;;;5063206;28;20220;-80
2023/11/03 07:25:50;;;;;;;1.52;1.30;;;;;;;;;;5064576;28;20248;-80
2023/11/03 07:28:18;;;;;;;1.00;1.00;;;;;;;;;;5060409;28;20656;-80
2023/11/03 07:30:46;;;;;;;1.17;1.08;;;;;;;;;;5063551;28;20593;-80
2023/11/03 07:33:13;;;;;;;1.63;1.20;;;;;;;;;;5056127;28;20233;-81
2023/11/03 07:35:42;;;;;;;2.90;1.00;;;;;;;;;;5064091;28;20268;-81
2023/11/03 07:38:09;;;;;;;2.95;1.63;;;;;;;;;;5048059;28;20744;-79
2023/11/03 07:40:37;;;;;;;1.17;1.10;;;;;;;;;;5058562;28;20205;-80
2023/11/03 07:43:05;;;;;;;1.25;0.90;;;;;;;;;;5054487;28;20222;-80
2023/11/03 07:45:33;;;;;;;1.92;1.67;;;;;;;;;;5062658;28;20654;-80
2023/11/03 07:48:01;;;;;;;2.55;0.95;;;;;;;;;;5049983;28;20321;-82
2023/11/03 07:50:29;;;;;;;0.55;0.55;;;;;;;;;;5050365;28;20210;-80
2023/11/03 07:52:58;;;;;;;0.70;0.70;;;;;;;;;;5060896;28;20577;-81
2023/11/03 07:55:25;;;;;;;2.10;1.02;;;;;;;;;;5056844;28;20289;-79
2023/11/03 07:57:53;;;;;;;1.02;0.82;;;;;;;;;;5060117;28;20288;-79
2023/11/03 08:00:22;;;;;;;1.02;0.90;;;;;;;;;;5060384;28;20269;-79
2023/11/03 08:02:50;;;;;;;2.88;0.70;;;;;;;;;;5053557;28;20702;-78
2023/11/03 08:05:18;;;;;;;0.80;0.80;;;;;;;;;;5056421;28;20206;-79
2023/11/03 08:07:45;;;;;;;0.80;0.70;;;;;;;;;;5042860;28;20203;-79
2023/11/03 08:10:15;;;;;;;1.77;1.05;;;;;;;;;;5046328;28;20197;-79
2023/11/03 08:12:42;;;;;;;1.13;1.00;;;;;;;;;;5057315;28;20217;-80
2023/11/03 08:15:10;;;;;;;0.80;0.80;;;;;;;;;;5062749;28;20621;-81
2023/11/03 08:17:39;;;;;;;2.25;0.82;;;;;;;;;;5060374;28;20244;-80
2023/11/03 08:20:11;;;;;;;0.88;0.80;;;;;;;;;;5062318;28;20270;-80
2023/11/03 08:22:39;;;;;;;1.73;1.42;;;;;;;;;;5043664;28;20293;-79
2023/11/03 08:25:08;;;;;;;5.00;1.20;;;;;;;;;;5060291;28;20213;-82
2023/11/03 08:27:37;;;;;;;3.10;1.10;;;;;;;;;;5057817;28;20201;-81
2023/11/03 08:30:08;;;;;;;1.33;1.10;;;;;;;;;;5061326;28;20204;-81
2023/11/03 08:32:36;;;;;;;1.20;1.08;;;;;;;;;;5053341;28;20229;-80
2023/11/03 08:35:05;;;;;;;1.80;1.08;;;;;;;;;;5059635;28;20605;-80
2023/11/03 08:37:33;;;;;;;1.02;0.88;;;;;;;;;;5060575;28;20206;-80
2023/11/03 08:40:00;;;;;;;1.50;1.40;;;;;;;;;;5059375;28;20201;-81
2023/11/03 08:42:28;;;;;;;2.10;1.20;;;;;;;;;;5059075;28;20205;-80
2023/11/03 08:44:56;;;;;;;1.70;1.05;;;;;;;;;;5057372;28;20739;-82
2023/11/03 08:47:24;;;;;;;2.33;1.10;;;;;;;;;;5055498;28;20669;-81
2023/11/03 08:49:51;;;;;;;2.67;1.13;;;;;;;;;;5045676;28;20230;-82
2023/11/03 08:52:19;;;;;;;2.17;1.20;;;;;;;;;;5054756;28;20208;-81
2023/11/03 08:54:47;;;;;;;1.33;0.90;;;;;;;;;;5057588;28;20772;-79
2023/11/03 08:57:15;;;;;;;1.52;1.15;;;;;;;;;;5040369;28;20240;-80
2023/11/03 08:59:42;;;;;;;1.40;1.30;;;;;;;;;;5059331;28;20251;-80
2023/11/03 09:02:11;;;;;;;2.00;1.38;;;;;;;;;;5059248;28;20668;-81
2023/11/03 09:04:39;;;;;;;4.13;1.30;;;;;;;;;;5052793;28;20314;-80
2023/11/03 09:07:09;;;;;;;1.83;1.00;;;;;;;;;;5040860;28;20206;-80
2023/11/03 09:09:37;;;;;;;1.60;1.50;;;;;;;;;;5041396;28;20202;-80
2023/11/03 09:12:05;;;;;;;3.03;1.20;;;;;;;;;;5049592;28;20203;-80
2023/11/03 09:14:33;;;;;;;0.88;0.85;;;;;;;;;;5058716;28;20599;-79
2023/11/03 09:17:00;;;;;;;2.85;1.15;;;;;;;;;;5044162;28;20213;-80
2023/11/03 09:19:29;;;;;;;2.38;1.00;;;;;;;;;;5049932;28;20228;-79
2023/11/03 09:21:57;;;;;;;1.40;0.90;;;;;;;;;;5045012;28;20198;-79
2023/11/03 09:24:24;;;;;;;3.50;1.08;;;;;;;;;;5057762;28;20221;-80
2023/11/03 09:26:52;;;;;;;2.20;1.63;;;;;;;;;;5051505;28;20273;-82
2023/11/03 09:29:21;;;;;;;2.22;1.30;;;;;;;;;;5049640;28;20209;-82
2023/11/03 09:31:49;;;;;;;1.85;1.20;;;;;;;;;;5042409;28;20832;-83
2023/11/03 09:34:16;;;;;;;1.05;0.90;;;;;;;;;;5048010;28;20257;-83
2023/11/03 09:36:45;;;;;;;1.38;1.10;;;;;;;;;;5049971;28;20204;-80
2023/11/03 09:39:14;;;;;;;2.50;1.00;;;;;;;;;;5052239;28;20293;-80
2023/11/03 09:41:48;;;;;;;7.47;3.08;;;;;;;;;;5042439;28;20252;-79
2023/11/03 09:44:16;;;;;;;3.60;1.40;;;;;;;;;;5050965;28;20245;-81
2023/11/03 09:46:43;;;;;;;1.38;1.30;;;;;;;;;;5052376;28;20269;-80
2023/11/03 09:49:11;;;;;;;2.58;1.27;;;;;;;;;;5051154;28;20288;-80
2023/11/03 09:51:40;;;;;;;1.55;1.00;;;;;;;;;;5040671;28;20403;-79
2023/11/03 09:54:12;;;;;;;3.30;1.25;;;;;;;;;;5051910;28;20237;-79
2023/11/03 09:56:40;;;;;;;2.55;1.30;;;;;;;;;;5051532;28;20202;-80
2023/11/03 09:59:08;;;;;;;1.50;1.17;;;;;;;;;;5055647;28;20217;-80
2023/11/03 10:01:37;;;;;;;4.03;1.15;;;;;;;;;;5047586;28;20287;-80
2023/11/03 10:04:07;;;;;;;1.60;1.20;;;;;;;;;;5055084;22;20276;-90
2023/11/03 10:06:35;;;;;;;1.45;1.00;;;;;;;;;;5033222;28;20214;-90
2023/11/03 10:09:03;;;;;;;4.07;1.58;;;;;;;;;;5034572;28;20289;-90
2023/11/03 10:11:33;;;;;;;6.40;2.20;;;;;;;;;;5033223;28;20214;-90
2023/11/03 10:14:00;;;;;;;1.45;1.13;;;;;;;;;;5032671;28;20207;-90
2023/11/03 10:16:28;;;;;;;2.10;0.95;;;;;;;;;;5032329;28;20313;-90
2023/11/03 10:18:55;;;;;;;0.98;0.90;;;;;;;;;;5026184;28;20285;-90
2023/11/03 10:21:24;;;;;;;5.03;1.35;;;;;;;;;;5022257;28;20201;-89
2023/11/03 10:23:51;;;;;;;3.25;1.33;;;;;;;;;;5031006;28;20278;-90
2023/11/03 10:26:19;;;;;;;1.80;1.15;;;;;;;;;;5030992;28;20202;-90
2023/11/03 10:28:48;;;;;;;2.40;1.20;;;;;;;;;;5036956;28;20630;-89
2023/11/03 10:31:15;;;;;;;2.17;1.13;;;;;;;;;;5029477;28;20202;-88
2023/11/03 10:33:43;;;;;;;2.65;1.33;;;;;;;;;;5033132;28;20206;-89
2023/11/03 10:36:11;;;;;;;2.10;1.30;;;;;;;;;;5019643;28;20222;-88
2023/11/03 10:38:39;;;;;;;1.83;1.25;;;;;;;;;;5029210;28;20214;-87
2023/11/03 10:41:08;;;;;;;1.77;1.02;;;;;;;;;;5033442;28;20206;-86
2023/11/03 10:43:41;;;;;;;1.80;1.00;;;;;;;;;;5021365;28;20237;-87
2023/11/03 10:46:18;;;;;;;2.60;1.10;;;;;;;;;;5022772;28;20224;-86
2023/11/03 10:48:47;;;;;;;3.75;1.60;;;;;;;;;;5030540;28;20226;-88
2023/11/03 10:51:22;;;;;;;3.85;1.25;;;;;;;;;;5021158;28;20203;-87
2023/11/03 10:53:59;;;;;;;0.80;0.75;;;;;;;;;;5018440;28;20264;-89
2023/11/03 10:56:27;;;;;;;1.60;1.05;;;;;;;;;;5018261;28;20229;-86
2023/11/03 10:58:55;;;;;;;3.00;1.38;;;;;;;;;;5018756;28;20195;-86
2023/11/03 11:01:30;;;;;;;2.25;1.02;;;;;;;;;;5018114;28;20668;-86
2023/11/03 11:04:01;;;;;;;2.60;1.38;;;;;;;;;;5022041;28;20208;-87
2023/11/03 11:06:32;;;;;;;3.55;1.35;;;;;;;;;;5024436;28;20207;-84
2023/11/03 11:09:05;;;;;;;4.65;1.52;;;;;;;;;;5021647;28;20205;-88
2023/11/03 11:11:34;;;;;;;1.27;0.88;;;;;;;;;;5026506;28;20660;-86
2023/11/03 11:14:22;;;;;;;3.00;1.55;;;;;;;;;;5020077;28;20716;-87
2023/11/03 11:16:55;;;;;;;2.05;1.15;;;;;;;;;;5023155;28;20282;-88
2023/11/03 11:19:36;;;;;;;1.67;1.30;;;;;;;;;;5024071;28;20298;-86
2023/11/03 11:22:08;;;;;;;4.05;1.60;;;;;;;;;;5020433;28;20206;-86
2023/11/03 11:24:36;;;;;;;5.45;1.20;;;;;;;;;;5026659;28;20409;-87
2023/11/03 11:27:15;;;;;;;0.80;0.80;;;;;;;;;;5019167;28;20199;-86
2023/11/03 11:29:43;;;;;;;0.93;0.93;;;;;;;;;;5025901;28;20198;-87
2023/11/03 11:32:13;;;;;;;1.27;0.80;;;;;;;;;;5025342;28;20231;-87
2023/11/03 11:34:44;;;;;;;1.60;1.35;;;;;;;;;;5026516;28;20245;-86
2023/11/03 11:37:26;;;;;;;2.90;1.63;;;;;;;;;;5029511;28;20202;-88
2023/11/03 11:39:54;;;;;;;1.85;0.98;;;;;;;;;;5026670;28;20290;-87
2023/11/03 11:42:23;;;;;;;2.78;1.00;;;;;;;;;;5020568;28;20203;-87
2023/11/03 11:44:53;;;;;;;2.83;1.10;;;;;;;;;;5022507;28;20579;-87
2023/11/03 11:47:24;;;;;;;2.13;1.38;;;;;;;;;;5021904;28;20230;-88
2023/11/03 11:49:54;;;;;;;1.40;1.08;;;;;;;;;;5020076;28;20652;-88
2023/11/03 11:52:25;;;;;;;4.43;1.40;;;;;;;;;;5020220;28;20213;-87
2023/11/03 11:54:53;;;;;;;1.77;1.13;;;;;;;;;;5025845;28;20244;-87
2023/11/03 11:57:21;;;;;;;3.08;0.98;;;;;;;;;;5015883;28;20271;-88
2023/11/03 11:59:51;;;;;;;1.80;1.25;;;;;;;;;;5032243;28;20691;-84
2023/11/03 12:02:19;;;;;;;2.53;1.33;;;;;;;;;;5033618;28;20230;-88
2023/11/03 12:04:52;;;;;;;2.33;1.00;;;;;;;;;;5031987;28;20235;-86
2023/11/03 12:07:23;;;;;;;2.20;1.55;;;;;;;;;;5021438;28;20234;-86
2023/11/03 12:09:52;;;;;;;2.25;1.20;;;;;;;;;;5025695;28;20252;-87
2023/11/03 12:12:19;;;;;;;1.30;1.13;;;;;;;;;;5025742;28;20199;-87
2023/11/03 12:14:47;;;;;;;5.38;2.15;;;;;;;;;;5021704;28;20269;-87
2023/11/03 12:17:15;;;;;;;2.33;1.25;;;;;;;;;;5019325;28;20277;-87
2023/11/03 12:19:44;;;;;;;4.03;1.58;;;;;;;;;;5025342;28;20198;-87
2023/11/03 12:22:20;;;;;;;2.47;1.00;;;;;;;;;;5025762;28;20303;-88
2023/11/03 12:24:48;;;;;;;1.27;1.08;;;;;;;;;;5027113;28;20229;-87
2023/11/03 12:27:16;;;;;;;1.48;0.90;;;;;;;;;;5028576;28;20226;-87
2023/11/03 12:29:47;;;;;;;2.22;1.58;;;;;;;;;;5022893;28;20199;-85
2023/11/03 12:32:15;;;;;;;2.45;1.27;;;;;;;;;;5025515;28;20658;-88
2023/11/03 12:34:45;;;;;;;2.45;1.70;;;;;;;;;;5022626;28;20225;-88
2023/11/03 12:37:12;;;;;;;1.63;0.93;;;;;;;;;;5025534;28;20251;-87
2023/11/03 12:39:52;;;;;;;7.55;2.35;;;;;;;;;;5021911;28;20230;-86
2023/11/03 12:42:22;;;;;;;1.85;1.25;;;;;;;;;;5019365;28;20205;-87
2023/11/03 12:44:52;;;;;;;3.55;1.73;;;;;;;;;;5026871;28;20222;-87
2023/11/03 12:47:39;;;;;;;6.93;1.23;;;;;;;;;;5023054;28;20226;-88
2023/11/03 12:50:16;;;;;;;1.27;1.17;;;;;;;;;;5028601;28;20317;-87
2023/11/03 12:52:45;;;;;;;2.65;1.10;;;;;;;;;;5031921;28;20256;-88
2023/11/03 12:55:20;;;;;;;4.93;1.13;;;;;;;;;;5017470;28;20259;-86
2023/11/03 12:57:48;;;;;;;1.20;1.05;;;;;;;;;;5027916;28;20289;-87
2023/11/03 13:00:16;;;;;;;2.67;1.10;;;;;;;;;;5021581;28;20584;-89
2023/11/03 13:02:44;;;;;;;2.90;1.02;;;;;;;;;;5016164;28;20207;-88
2023/11/03 13:05:12;;;;;;;3.63;1.10;;;;;;;;;;5024327;28;20227;-88
2023/11/03 13:07:39;;;;;;;1.55;1.20;;;;;;;;;;5017252;28;20222;-87
2023/11/03 13:10:09;;;;;;;2.83;1.27;;;;;;;;;;5015267;28;21276;-88
2023/11/03 13:12:38;;;;;;;1.55;1.20;;;;;;;;;;5016688;28;20207;-86
2023/11/03 13:15:09;;;;;;;1.17;1.02;;;;;;;;;;5033477;28;20222;-87
2023/11/03 13:17:37;;;;;;;2.53;1.42;;;;;;;;;;5022001;28;20211;-87
2023/11/03 13:20:10;;;;;;;2.03;1.10;;;;;;;;;;5019409;28;20216;-86
2023/11/03 13:22:37;;;;;;;2.42;1.20;;;;;;;;;;5025210;28;20212;-86
2023/11/03 13:25:06;;;;;;;3.70;1.17;;;;;;;;;;5019135;28;20607;-87
2023/11/03 13:27:34;;;;;;;2.08;1.15;;;;;;;;;;5018344;28;20711;-87
2023/11/03 13:30:03;;;;;;;4.03;1.10;;;;;;;;;;5020237;28;20674;-86
2023/11/03 13:32:30;;;;;;;3.20;1.55;;;;;;;;;;5022818;28;20582;-86
2023/11/03 13:34:57;;;;;;;2.72;1.20;;;;;;;;;;5017366;28;20297;-86
2023/11/03 13:37:25;;;;;;;3.85;1.35;;;;;;;;;;5017957;28;20205;-86
2023/11/03 13:39:53;;;;;;;5.82;2.47;;;;;;;;;;5019503;28;20197;-87
2023/11/03 13:42:20;;;;;;;2.25;1.52;;;;;;;;;;5027171;28;20293;-89
2023/11/03 13:44:49;;;;;;;2.13;1.33;;;;;;;;;;5019881;28;20246;-87
2023/11/03 13:47:18;;;;;;;2.30;1.15;;;;;;;;;;5023966;28;20692;-88
2023/11/03 13:49:45;;;;;;;1.83;1.38;;;;;;;;;;5031750;28;20225;-88
2023/11/03 13:52:13;;;;;;;1.45;1.00;;;;;;;;;;5014720;28;20238;-87
2023/11/03 13:54:40;;;;;;;1.25;1.08;;;;;;;;;;5013345;28;20223;-86
2023/11/03 13:57:08;;;;;;;1.17;0.85;;;;;;;;;;5021210;28;20585;-86
2023/11/03 13:59:35;;;;;;;3.72;1.38;;;;;;;;;;5015992;28;20207;-87
2023/11/03 14:02:03;;;;;;;3.17;1.35;;;;;;;;;;5024183;28;20194;-88
2023/11/03 14:04:32;;;;;;;2.88;1.20;;;;;;;;;;5023077;28;20268;-87
2023/11/03 14:06:59;;;;;;;1.35;1.00;;;;;;;;;;5017443;28;20717;-88
2023/11/03 14:09:27;;;;;;;1.10;1.00;;;;;;;;;;5021516;28;20201;-87
2023/11/03 14:11:55;;;;;;;2.08;1.20;;;;;;;;;;5015529;28;20198;-87
2023/11/03 14:14:24;;;;;;;2.90;1.25;;;;;;;;;;5016836;28;20218;-88
2023/11/03 14:16:52;;;;;;;1.00;0.90;;;;;;;;;;5023111;28;20675;-87
2023/11/03 14:19:21;;;;;;;1.10;1.00;;;;;;;;;;5015009;28;20293;-86
2023/11/03 14:21:49;;;;;;;2.15;1.20;;;;;;;;;;5019553;28;20203;-87
2023/11/03 14:24:17;;;;;;;2.42;0.85;;;;;;;;;;5014616;28;20318;-87
2023/11/03 14:26:47;;;;;;;1.25;1.10;;;;;;;;;;5023007;28;20555;-87
2023/11/03 14:29:15;;;;;;;1.20;0.90;;;;;;;;;;5033527;28;20194;-86
2023/11/03 14:31:43;;;;;;;1.23;1.13;;;;;;;;;;5019886;28;20203;-87
2023/11/03 14:34:13;;;;;;;1.10;1.00;;;;;;;;;;5020948;28;20310;-86
2023/11/03 14:36:42;;;;;;;0.60;0.60;;;;;;;;;;5018663;28;20203;-87
2023/11/03 14:39:13;;;;;;;0.90;0.82;;;;;;;;;;5021779;28;20203;-87
2023/11/03 14:41:40;;;;;;;1.85;0.90;;;;;;;;;;5016308;28;20630;-88
2023/11/03 14:44:11;;;;;;;1.95;1.00;;;;;;;;;;5026410;28;20306;-87
2023/11/03 14:46:39;;;;;;;2.88;1.27;;;;;;;;;;5030036;28;20209;-87
2023/11/03 14:49:09;;;;;;;1.52;1.40;;;;;;;;;;5021135;28;20247;-87
2023/11/03 14:51:37;;;;;;;2.10;1.30;;;;;;;;;;5021533;28;20195;-86